Time;durP1;ratioP1;P1;durP2;ratioP2;P2;SDS_P1;SDS_P2;PMS_P1;PMS_P2;Temp;Humidity;BMP_temperature;BMP_pressure;BME280_temperature;BME280_humidity;BME280_pressure;Samples;Min_cycle;Max_cycle;Signal;HPM_P1;HPM_P2
2023/12/29 00:00:41;;;;;;;21.63;19.90;;;;;;;;;;5056647;28;20048;-73
2023/12/29 00:03:11;;;;;;;21.88;20.38;;;;;;;;;;5059044;28;20040;-74
2023/12/29 00:05:43;;;;;;;21.30;19.70;;;;;;;;;;5059222;28;20499;-74
2023/12/29 00:08:19;;;;;;;18.45;16.63;;;;;;;;;;5058528;28;20111;-74
2023/12/29 00:10:50;;;;;;;18.08;16.58;;;;;;;;;;5058356;28;20047;-75
2023/12/29 00:13:22;;;;;;;21.55;20.15;;;;;;;;;;5058502;28;20446;-74
2023/12/29 00:15:56;;;;;;;17.40;16.20;;;;;;;;;;5058390;28;20056;-76
2023/12/29 00:18:26;;;;;;;21.15;19.75;;;;;;;;;;5059142;28;20691;-74
2023/12/29 00:20:57;;;;;;;20.35;18.95;;;;;;;;;;5057881;28;20052;-73
2023/12/29 00:23:35;;;;;;;15.38;13.75;;;;;;;;;;5058233;28;20044;-73
2023/12/29 00:26:06;;;;;;;19.10;17.77;;;;;;;;;;5059281;28;20056;-73
2023/12/29 00:28:40;;;;;;;21.17;19.70;;;;;;;;;;5061325;28;20542;-76
2023/12/29 00:31:17;;;;;;;17.85;16.63;;;;;;;;;;5061334;28;20071;-74
2023/12/29 00:33:51;;;;;;;23.13;21.08;;;;;;;;;;5061665;28;20053;-74
2023/12/29 00:36:22;;;;;;;16.55;13.93;;;;;;;;;;5062010;28;20052;-74
2023/12/29 00:38:53;;;;;;;18.35;16.95;;;;;;;;;;5062316;28;20048;-74
2023/12/29 00:41:23;;;;;;;19.35;17.77;;;;;;;;;;5062671;28;20044;-74
2023/12/29 00:43:54;;;;;;;17.80;16.20;;;;;;;;;;5060711;28;20388;-74
2023/12/29 00:46:24;;;;;;;20.13;18.65;;;;;;;;;;5058840;28;20519;-75
2023/12/29 00:48:56;;;;;;;19.85;18.17;;;;;;;;;;5061562;28;20055;-75
2023/12/29 00:51:28;;;;;;;19.27;17.75;;;;;;;;;;5060842;28;20063;-77
2023/12/29 00:53:59;;;;;;;26.63;24.73;;;;;;;;;;5059188;28;20060;-74
2023/12/29 00:56:30;;;;;;;28.10;25.92;;;;;;;;;;5058174;28;20075;-74
2023/12/29 00:59:01;;;;;;;26.63;24.90;;;;;;;;;;5060950;28;20040;-74
2023/12/29 01:01:35;;;;;;;26.98;25.27;;;;;;;;;;5061361;28;20530;-75
2023/12/29 01:04:06;;;;;;;25.83;23.80;;;;;;;;;;5060323;28;20052;-74
2023/12/29 01:06:36;;;;;;;27.33;24.92;;;;;;;;;;5061996;28;20053;-74
2023/12/29 01:09:11;;;;;;;24.05;21.90;;;;;;;;;;5060522;28;20044;-75
2023/12/29 01:11:41;;;;;;;21.90;20.33;;;;;;;;;;5060588;28;20063;-74
2023/12/29 01:14:11;;;;;;;24.25;22.17;;;;;;;;;;5061452;28;20041;-75
2023/12/29 01:16:42;;;;;;;21.63;19.77;;;;;;;;;;5060028;28;20044;-75
2023/12/29 01:19:13;;;;;;;22.35;20.23;;;;;;;;;;5061577;28;20048;-74
2023/12/29 01:21:45;;;;;;;23.27;21.83;;;;;;;;;;5061327;28;20107;-74
2023/12/29 01:24:16;;;;;;;19.60;18.15;;;;;;;;;;5062540;28;20586;-74
2023/12/29 01:26:54;;;;;;;22.98;21.02;;;;;;;;;;5060387;28;20298;-75
2023/12/29 01:29:26;;;;;;;19.88;18.20;;;;;;;;;;5059762;28;20754;-74
2023/12/29 01:31:57;;;;;;;21.27;19.40;;;;;;;;;;5060956;28;20056;-74
2023/12/29 01:34:32;;;;;;;22.65;20.73;;;;;;;;;;5059475;28;20063;-75
2023/12/29 01:37:04;;;;;;;22.83;21.23;;;;;;;;;;5060393;28;20048;-75
2023/12/29 01:39:35;;;;;;;20.33;18.85;;;;;;;;;;5060396;28;20041;-75
2023/12/29 01:42:07;;;;;;;20.02;18.63;;;;;;;;;;5060923;28;20090;-74
2023/12/29 01:44:38;;;;;;;17.88;16.42;;;;;;;;;;5060384;28;20049;-75
2023/12/29 01:47:17;;;;;;;18.02;16.80;;;;;;;;;;5059714;28;20059;-75
2023/12/29 01:49:50;;;;;;;17.92;16.48;;;;;;;;;;5060551;28;20040;-74
2023/12/29 01:52:21;;;;;;;21.30;19.60;;;;;;;;;;5061209;28;20044;-74
2023/12/29 01:54:53;;;;;;;16.85;15.50;;;;;;;;;;5061159;28;20049;-75
2023/12/29 01:57:24;;;;;;;20.80;19.33;;;;;;;;;;5060688;28;20064;-74
2023/12/29 01:59:55;;;;;;;20.25;18.75;;;;;;;;;;5059254;28;20052;-75
2023/12/29 02:02:25;;;;;;;19.48;17.60;;;;;;;;;;5042744;28;20849;-75
2023/12/29 02:04:56;;;;;;;17.60;16.17;;;;;;;;;;5060806;28;20086;-75
2023/12/29 02:07:30;;;;;;;16.08;14.73;;;;;;;;;;5059598;28;20036;-75
2023/12/29 02:10:02;;;;;;;25.42;23.50;;;;;;;;;;5060584;28;20051;-74
2023/12/29 02:12:36;;;;;;;24.25;22.50;;;;;;;;;;5058936;28;20048;-74
2023/12/29 02:15:08;;;;;;;22.70;21.17;;;;;;;;;;5058960;28;20068;-75
2023/12/29 02:17:46;;;;;;;32.03;29.55;;;;;;;;;;5060360;28;20048;-75
2023/12/29 02:20:18;;;;;;;25.27;23.65;;;;;;;;;;5058600;28;20056;-74
2023/12/29 02:22:49;;;;;;;23.58;21.85;;;;;;;;;;5060101;28;20043;-75
2023/12/29 02:25:20;;;;;;;20.17;18.67;;;;;;;;;;5059271;28;20427;-75
2023/12/29 02:28:12;;;;;;;29.08;26.83;;;;;;;;;;5059784;28;20055;-75
2023/12/29 02:30:48;;;;;;;26.67;24.83;;;;;;;;;;5060119;28;20045;-75
2023/12/29 02:33:21;;;;;;;25.30;23.20;;;;;;;;;;5060630;28;20056;-74
2023/12/29 02:35:55;;;;;;;25.00;22.85;;;;;;;;;;5059704;28;20056;-74
2023/12/29 02:38:28;;;;;;;27.45;25.52;;;;;;;;;;5061399;28;20044;-75
2023/12/29 02:41:00;;;;;;;26.80;24.80;;;;;;;;;;5060101;28;20048;-74
2023/12/29 02:43:34;;;;;;;26.15;24.08;;;;;;;;;;5059461;28;20416;-77
2023/12/29 02:46:05;;;;;;;27.65;25.67;;;;;;;;;;5058114;28;20651;-75
2023/12/29 02:48:35;;;;;;;25.35;23.65;;;;;;;;;;5060302;28;20049;-75
2023/12/29 02:51:08;;;;;;;20.92;19.50;;;;;;;;;;5058481;28;20056;-74
2023/12/29 02:53:38;;;;;;;24.75;22.95;;;;;;;;;;5060091;28;20094;-74
2023/12/29 02:56:08;;;;;;;21.42;19.80;;;;;;;;;;5059757;28;20051;-74
2023/12/29 02:58:39;;;;;;;24.25;21.80;;;;;;;;;;5058114;28;20053;-73
2023/12/29 03:01:10;;;;;;;26.15;24.13;;;;;;;;;;5057618;28;20051;-73
2023/12/29 03:03:41;;;;;;;25.83;23.77;;;;;;;;;;5059546;28;20518;-75
2023/12/29 03:06:13;;;;;;;24.83;23.13;;;;;;;;;;5059123;28;20033;-74
2023/12/29 03:08:43;;;;;;;26.85;24.83;;;;;;;;;;5059029;28;20579;-74
2023/12/29 03:11:13;;;;;;;23.27;21.25;;;;;;;;;;5058002;28;20439;-74
2023/12/29 03:13:43;;;;;;;27.27;25.20;;;;;;;;;;5059313;28;20045;-75
2023/12/29 03:16:14;;;;;;;23.77;21.90;;;;;;;;;;5059511;28;20039;-74
2023/12/29 03:18:47;;;;;;;24.25;22.58;;;;;;;;;;5058300;28;20052;-75
2023/12/29 03:21:18;;;;;;;25.48;23.42;;;;;;;;;;5059071;28;20055;-74
2023/12/29 03:23:48;;;;;;;25.05;22.92;;;;;;;;;;5058845;28;20052;-74
2023/12/29 03:26:19;;;;;;;27.25;25.38;;;;;;;;;;5058973;28;20044;-76
2023/12/29 03:28:50;;;;;;;27.45;25.63;;;;;;;;;;5058590;28;20048;-75
2023/12/29 03:31:21;;;;;;;27.75;25.58;;;;;;;;;;5058636;28;20508;-74
2023/12/29 03:33:51;;;;;;;30.90;28.05;;;;;;;;;;5058603;28;20045;-75
2023/12/29 03:36:23;;;;;;;27.63;25.85;;;;;;;;;;5059345;28;20857;-75
2023/12/29 03:38:54;;;;;;;26.60;24.88;;;;;;;;;;5057406;28;20044;-74
2023/12/29 03:41:24;;;;;;;26.60;24.38;;;;;;;;;;5058473;28;20044;-74
2023/12/29 03:43:56;;;;;;;31.63;28.80;;;;;;;;;;5059503;28;20052;-74
2023/12/29 03:46:26;;;;;;;31.55;29.67;;;;;;;;;;5059041;28;20048;-74
2023/12/29 03:48:59;;;;;;;34.92;32.47;;;;;;;;;;5059044;28;20072;-74
2023/12/29 03:51:30;;;;;;;32.47;29.92;;;;;;;;;;5059270;28;20048;-74
2023/12/29 03:54:00;;;;;;;33.40;31.05;;;;;;;;;;5059159;28;20056;-75
2023/12/29 03:56:31;;;;;;;34.08;31.92;;;;;;;;;;5059450;28;20052;-75
2023/12/29 03:59:03;;;;;;;32.08;30.10;;;;;;;;;;5058829;28;20068;-74
2023/12/29 04:01:35;;;;;;;35.05;32.47;;;;;;;;;;5060115;28;20080;-74
2023/12/29 04:04:06;;;;;;;32.38;30.05;;;;;;;;;;5062698;28;20053;-74
2023/12/29 04:06:36;;;;;;;28.90;27.00;;;;;;;;;;5062522;28;20048;-75
2023/12/29 04:09:08;;;;;;;24.92;22.80;;;;;;;;;;5061246;28;20605;-73
2023/12/29 04:11:38;;;;;;;26.13;24.20;;;;;;;;;;5062990;28;20515;-74
2023/12/29 04:14:12;;;;;;;23.35;21.65;;;;;;;;;;5062587;28;20044;-74
2023/12/29 04:16:44;;;;;;;18.67;17.20;;;;;;;;;;5062345;28;20044;-74
2023/12/29 04:19:15;;;;;;;19.63;17.90;;;;;;;;;;5063040;28;20048;-75
2023/12/29 04:21:46;;;;;;;19.15;17.85;;;;;;;;;;5062661;28;20040;-75
2023/12/29 04:24:16;;;;;;;24.25;21.85;;;;;;;;;;5062674;28;20404;-74
2023/12/29 04:26:46;;;;;;;24.50;22.90;;;;;;;;;;5062450;28;20044;-74
2023/12/29 04:29:16;;;;;;;20.33;18.83;;;;;;;;;;5060779;28;20064;-75
2023/12/29 04:31:47;;;;;;;22.02;20.50;;;;;;;;;;5061101;28;20045;-74
2023/12/29 04:34:18;;;;;;;23.58;21.70;;;;;;;;;;5062282;28;20064;-74
2023/12/29 04:36:49;;;;;;;21.80;20.30;;;;;;;;;;5060547;28;20068;-74
2023/12/29 04:39:19;;;;;;;27.38;24.80;;;;;;;;;;5063959;28;20045;-75
2023/12/29 04:41:50;;;;;;;23.80;22.25;;;;;;;;;;5064424;28;20053;-74
2023/12/29 04:44:21;;;;;;;24.95;22.63;;;;;;;;;;5063099;28;20045;-75
2023/12/29 04:46:52;;;;;;;23.23;21.67;;;;;;;;;;5064459;28;20534;-73
2023/12/29 04:49:22;;;;;;;23.95;22.02;;;;;;;;;;5064516;28;20055;-74
2023/12/29 04:51:53;;;;;;;21.70;19.77;;;;;;;;;;5064427;28;20055;-75
2023/12/29 04:54:26;;;;;;;22.42;20.85;;;;;;;;;;5064103;28;20045;-75
2023/12/29 04:56:56;;;;;;;26.23;24.38;;;;;;;;;;5063813;28;20507;-74
2023/12/29 04:59:26;;;;;;;20.45;18.80;;;;;;;;;;5064253;28;20048;-74
2023/12/29 05:01:57;;;;;;;24.52;23.00;;;;;;;;;;5064515;28;20044;-74
2023/12/29 05:04:28;;;;;;;20.30;18.85;;;;;;;;;;5064967;28;20045;-74
2023/12/29 05:06:59;;;;;;;21.00;19.45;;;;;;;;;;5064198;28;20036;-74
2023/12/29 05:09:29;;;;;;;20.27;18.70;;;;;;;;;;5064574;28;20491;-73
2023/12/29 05:11:59;;;;;;;22.02;20.20;;;;;;;;;;5062640;28;20055;-75
2023/12/29 05:14:30;;;;;;;25.10;23.20;;;;;;;;;;5063624;28;20048;-74
2023/12/29 05:17:01;;;;;;;21.00;19.45;;;;;;;;;;5063889;28;20060;-74
2023/12/29 05:19:31;;;;;;;30.90;28.23;;;;;;;;;;5063538;28;20059;-74
2023/12/29 05:22:03;;;;;;;20.58;19.13;;;;;;;;;;5063727;28;20052;-75
2023/12/29 05:24:34;;;;;;;19.35;18.10;;;;;;;;;;5064182;28;20044;-74
2023/12/29 05:27:05;;;;;;;21.15;19.80;;;;;;;;;;5064259;28;20047;-74
2023/12/29 05:29:35;;;;;;;23.00;21.42;;;;;;;;;;5063929;28;20053;-74
2023/12/29 05:32:08;;;;;;;23.90;22.08;;;;;;;;;;5063767;28;20078;-73
2023/12/29 05:34:38;;;;;;;23.65;22.20;;;;;;;;;;5063049;28;20060;-74
2023/12/29 05:37:09;;;;;;;23.45;21.90;;;;;;;;;;5064421;28;20044;-74
2023/12/29 05:39:44;;;;;;;20.35;18.98;;;;;;;;;;5062968;28;20048;-74
2023/12/29 05:42:14;;;;;;;21.45;19.85;;;;;;;;;;5063992;28;20527;-74
2023/12/29 05:44:44;;;;;;;24.27;22.50;;;;;;;;;;5062586;28;20435;-75
2023/12/29 05:47:17;;;;;;;22.40;20.70;;;;;;;;;;5064349;28;20044;-74
2023/12/29 05:49:49;;;;;;;21.83;20.33;;;;;;;;;;5064031;28;20059;-74
2023/12/29 05:52:21;;;;;;;23.40;21.63;;;;;;;;;;5063730;28;20411;-75
2023/12/29 05:54:51;;;;;;;22.95;21.33;;;;;;;;;;5063579;28;20415;-73
2023/12/29 05:57:21;;;;;;;26.42;24.83;;;;;;;;;;5063310;28;20059;-74
2023/12/29 05:59:52;;;;;;;29.20;26.98;;;;;;;;;;5063158;28;20044;-74
2023/12/29 06:02:22;;;;;;;24.65;23.15;;;;;;;;;;5063070;28;20050;-74
2023/12/29 06:04:53;;;;;;;27.05;24.92;;;;;;;;;;5063127;28;20527;-74
2023/12/29 06:07:24;;;;;;;24.85;23.27;;;;;;;;;;5063187;28;20399;-75
2023/12/29 06:09:54;;;;;;;30.88;28.83;;;;;;;;;;5062684;28;20044;-74
2023/12/29 06:12:25;;;;;;;28.77;26.45;;;;;;;;;;5063102;28;20491;-74
2023/12/29 06:14:56;;;;;;;19.75;18.27;;;;;;;;;;5062627;28;20041;-74
2023/12/29 06:17:26;;;;;;;18.73;17.23;;;;;;;;;;5062968;28;20051;-74
2023/12/29 06:19:56;;;;;;;21.00;18.90;;;;;;;;;;5062568;28;20047;-73
2023/12/29 06:22:28;;;;;;;23.58;21.85;;;;;;;;;;5061953;28;20044;-75
2023/12/29 06:24:59;;;;;;;22.02;20.00;;;;;;;;;;5062034;28;20044;-74
2023/12/29 06:27:29;;;;;;;19.63;17.98;;;;;;;;;;5062418;28;20051;-74
2023/12/29 06:29:59;;;;;;;20.88;19.25;;;;;;;;;;5062493;28;20048;-75
2023/12/29 06:32:29;;;;;;;19.73;18.45;;;;;;;;;;5062426;28;21073;-74
2023/12/29 06:35:01;;;;;;;20.15;18.67;;;;;;;;;;5062790;28;20056;-74
2023/12/29 06:37:32;;;;;;;19.77;18.17;;;;;;;;;;5062756;28;20040;-74
2023/12/29 06:40:03;;;;;;;24.00;21.90;;;;;;;;;;5061295;28;20051;-74
2023/12/29 06:42:34;;;;;;;26.60;24.48;;;;;;;;;;5062087;28;20055;-74
2023/12/29 06:45:08;;;;;;;30.58;28.25;;;;;;;;;;5062410;28;20059;-75
2023/12/29 06:47:39;;;;;;;22.77;21.10;;;;;;;;;;5061032;28;20614;-75
2023/12/29 06:50:12;;;;;;;27.02;25.20;;;;;;;;;;5060797;28;20048;-74
2023/12/29 06:52:42;;;;;;;30.20;28.17;;;;;;;;;;5062017;28;20207;-74
2023/12/29 06:55:13;;;;;;;25.95;23.85;;;;;;;;;;5060583;28;20233;-75
2023/12/29 06:57:44;;;;;;;24.00;22.48;;;;;;;;;;5062334;28;20048;-75
2023/12/29 07:00:15;;;;;;;27.90;25.75;;;;;;;;;;5062306;28;20051;-74
2023/12/29 07:02:45;;;;;;;29.80;27.90;;;;;;;;;;5062479;28;20079;-74
2023/12/29 07:05:17;;;;;;;27.48;25.58;;;;;;;;;;5061571;28;20049;-74
2023/12/29 07:07:47;;;;;;;28.33;26.38;;;;;;;;;;5061337;28;20052;-75
2023/12/29 07:10:17;;;;;;;22.55;20.92;;;;;;;;;;5062125;28;20044;-74
2023/12/29 07:12:47;;;;;;;29.02;26.95;;;;;;;;;;5062114;28;20044;-75
2023/12/29 07:15:20;;;;;;;25.27;23.58;;;;;;;;;;5061437;28;20047;-74
2023/12/29 07:17:51;;;;;;;25.98;24.20;;;;;;;;;;5061543;28;20566;-73
2023/12/29 07:20:22;;;;;;;28.67;26.65;;;;;;;;;;5061316;28;20494;-74
2023/12/29 07:22:53;;;;;;;31.02;28.73;;;;;;;;;;5059992;28;20489;-75
2023/12/29 07:25:24;;;;;;;25.83;23.77;;;;;;;;;;5059516;28;20064;-74
2023/12/29 07:27:56;;;;;;;27.58;25.30;;;;;;;;;;5061669;28;20040;-74
2023/12/29 07:30:27;;;;;;;25.15;23.35;;;;;;;;;;5061651;28;20055;-75
2023/12/29 07:32:58;;;;;;;26.17;24.25;;;;;;;;;;5062591;28;20063;-75
2023/12/29 07:35:28;;;;;;;24.98;22.85;;;;;;;;;;5061493;28;20060;-75
2023/12/29 07:37:59;;;;;;;21.65;20.25;;;;;;;;;;5062085;28;20052;-74
2023/12/29 07:40:30;;;;;;;21.08;19.52;;;;;;;;;;5061478;28;20048;-75
2023/12/29 07:43:02;;;;;;;21.05;19.60;;;;;;;;;;5060861;28;20052;-74
2023/12/29 07:45:33;;;;;;;22.42;20.63;;;;;;;;;;5059998;28;20053;-75
2023/12/29 07:48:04;;;;;;;22.77;20.77;;;;;;;;;;5061551;28;20053;-75
2023/12/29 07:50:38;;;;;;;23.02;21.13;;;;;;;;;;5061716;28;20048;-74
2023/12/29 07:53:08;;;;;;;23.70;21.70;;;;;;;;;;5061042;28;20083;-74
2023/12/29 07:55:40;;;;;;;23.77;22.05;;;;;;;;;;5060837;28;20041;-74
2023/12/29 07:58:10;;;;;;;22.90;21.38;;;;;;;;;;5061145;28;20425;-74
2023/12/29 08:00:41;;;;;;;21.80;20.33;;;;;;;;;;5061529;28;20049;-75
2023/12/29 08:03:11;;;;;;;28.08;26.05;;;;;;;;;;5061291;28;20059;-74
2023/12/29 08:05:42;;;;;;;22.58;21.02;;;;;;;;;;5061419;28;20060;-74
2023/12/29 08:08:13;;;;;;;26.83;25.23;;;;;;;;;;5061087;28;20431;-75
2023/12/29 08:10:43;;;;;;;27.75;26.13;;;;;;;;;;5061359;28;20044;-74
2023/12/29 08:13:13;;;;;;;27.15;24.92;;;;;;;;;;5060103;28;20055;-74
2023/12/29 08:15:44;;;;;;;28.77;26.88;;;;;;;;;;5061205;28;20552;-75
2023/12/29 08:18:14;;;;;;;27.23;25.30;;;;;;;;;;5061224;28;20063;-74
2023/12/29 08:20:45;;;;;;;27.48;25.33;;;;;;;;;;5061092;28;20079;-75
2023/12/29 08:23:16;;;;;;;27.35;25.02;;;;;;;;;;5059906;28;20053;-74
2023/12/29 08:25:47;;;;;;;27.40;25.70;;;;;;;;;;5061087;28;20790;-74
2023/12/29 08:28:17;;;;;;;33.03;30.83;;;;;;;;;;5060691;28;20059;-75
2023/12/29 08:30:48;;;;;;;31.05;28.92;;;;;;;;;;5061438;28;20044;-73
2023/12/29 08:33:18;;;;;;;29.95;27.63;;;;;;;;;;5060649;28;20049;-76
2023/12/29 08:35:48;;;;;;;34.00;31.55;;;;;;;;;;5061210;28;20057;-75
2023/12/29 08:38:18;;;;;;;175.85;158.60;;;;;;;;;;5060896;28;20049;-74
2023/12/29 08:40:49;;;;;;;53.17;49.33;;;;;;;;;;5060728;28;20059;-74
2023/12/29 08:43:21;;;;;;;34.40;27.05;;;;;;;;;;5061260;28;20075;-78
2023/12/29 08:45:52;;;;;;;29.92;27.88;;;;;;;;;;5061125;28;20052;-78
2023/12/29 08:48:22;;;;;;;30.70;28.80;;;;;;;;;;5062685;28;20040;-75
2023/12/29 08:50:53;;;;;;;32.25;30.33;;;;;;;;;;5065056;28;20503;-79
2023/12/29 08:53:25;;;;;;;49.47;46.63;;;;;;;;;;5064275;28;20131;-77
2023/12/29 08:55:56;;;;;;;47.05;44.58;;;;;;;;;;5065065;28;20495;-76
2023/12/29 08:58:26;;;;;;;42.13;39.78;;;;;;;;;;5064782;28;20055;-75
2023/12/29 09:00:56;;;;;;;37.88;35.85;;;;;;;;;;5065268;28;20053;-74
2023/12/29 09:03:28;;;;;;;38.00;36.08;;;;;;;;;;5064940;28;20044;-76
2023/12/29 09:06:01;;;;;;;67.03;63.42;;;;;;;;;;5065170;28;20531;-75
2023/12/29 09:08:31;;;;;;;37.83;35.10;;;;;;;;;;5064083;28;20052;-77
2023/12/29 09:11:05;;;;;;;78.75;74.45;;;;;;;;;;5066204;28;20045;-77
2023/12/29 09:13:36;;;;;;;68.07;64.45;;;;;;;;;;5065127;28;20059;-75
2023/12/29 09:16:06;;;;;;;64.43;60.92;;;;;;;;;;5066807;28;20056;-78
2023/12/29 09:18:37;;;;;;;64.78;61.40;;;;;;;;;;5064675;28;20052;-78
2023/12/29 09:21:07;;;;;;;63.45;59.83;;;;;;;;;;5062884;28;20063;-79
2023/12/29 09:23:39;;;;;;;67.68;64.15;;;;;;;;;;5064174;28;20056;-75
2023/12/29 09:26:09;;;;;;;61.50;58.10;;;;;;;;;;5064894;28;20499;-75
2023/12/29 09:28:45;;;;;;;61.63;58.35;;;;;;;;;;5064684;28;20071;-75
2023/12/29 09:31:15;;;;;;;54.72;51.67;;;;;;;;;;5064067;28;20044;-74
2023/12/29 09:33:46;;;;;;;68.82;64.90;;;;;;;;;;5064630;28;20518;-75
2023/12/29 09:36:18;;;;;;;70.25;66.43;;;;;;;;;;5064319;28;20048;-80
2023/12/29 09:38:48;;;;;;;64.35;60.92;;;;;;;;;;5063348;28;20052;-73
2023/12/29 09:41:20;;;;;;;70.05;66.30;;;;;;;;;;5064029;28;20052;-76
2023/12/29 09:43:52;;;;;;;69.78;66.05;;;;;;;;;;5063604;28;20052;-75
2023/12/29 09:46:24;;;;;;;72.22;68.15;;;;;;;;;;5064400;28;20060;-75
2023/12/29 09:48:59;;;;;;;72.70;68.78;;;;;;;;;;5063786;28;20068;-76
2023/12/29 09:51:31;;;;;;;65.15;61.67;;;;;;;;;;5063193;28;20525;-83
2023/12/29 09:54:03;;;;;;;69.28;65.60;;;;;;;;;;5063109;28;20063;-77
2023/12/29 09:56:34;;;;;;;62.50;59.13;;;;;;;;;;5062976;28;20056;-75
2023/12/29 09:59:04;;;;;;;63.63;60.17;;;;;;;;;;5063445;28;20048;-74
2023/12/29 10:01:35;;;;;;;59.10;55.92;;;;;;;;;;5064051;28;20048;-77
2023/12/29 10:04:05;;;;;;;59.17;56.03;;;;;;;;;;5064657;28;20052;-76
2023/12/29 10:06:41;;;;;;;52.47;49.63;;;;;;;;;;5068316;28;20415;-79
2023/12/29 10:09:16;;;;;;;49.92;47.05;;;;;;;;;;5067547;28;20047;-78
2023/12/29 10:11:48;;;;;;;45.85;43.25;;;;;;;;;;5065402;28;20048;-79
2023/12/29 10:14:34;;;;;;;34.38;32.33;;;;;;;;;;5062985;28;20053;-77
2023/12/29 10:17:13;;;;;;;41.20;38.70;;;;;;;;;;5063573;28;20431;-76
2023/12/29 10:19:59;;;;;;;48.45;45.55;;;;;;;;;;5063488;28;20508;-78
2023/12/29 10:22:50;;;;;;;43.42;39.70;;;;;;;;;;5063256;28;20049;-82
2023/12/29 10:25:23;;;;;;;31.90;29.95;;;;;;;;;;5062819;28;20056;-82
2023/12/29 10:27:55;;;;;;;42.38;39.85;;;;;;;;;;5063201;28;20411;-80
2023/12/29 10:30:27;;;;;;;48.97;46.30;;;;;;;;;;5063391;28;20510;-79
2023/12/29 10:33:05;;;;;;;43.45;41.10;;;;;;;;;;5063162;28;20052;-78
2023/12/29 10:35:41;;;;;;;43.92;41.53;;;;;;;;;;5063164;28;20055;-79
2023/12/29 10:38:15;;;;;;;44.63;41.67;;;;;;;;;;5061960;28;20060;-78
2023/12/29 10:40:46;;;;;;;43.35;41.08;;;;;;;;;;5061608;28;20055;-77
2023/12/29 10:43:23;;;;;;;71.22;67.25;;;;;;;;;;5062856;28;20071;-80
2023/12/29 10:46:08;;;;;;;46.55;43.95;;;;;;;;;;5061640;28;20053;-78
2023/12/29 10:48:43;;;;;;;52.03;48.70;;;;;;;;;;5062110;28;20047;-78
2023/12/29 10:51:14;;;;;;;46.92;44.47;;;;;;;;;;5063226;28;20044;-78
2023/12/29 10:53:58;;;;;;;48.80;46.28;;;;;;;;;;5062234;28;20048;-79
2023/12/29 10:56:30;;;;;;;60.90;57.25;;;;;;;;;;5063823;28;20442;-81
2023/12/29 10:59:05;;;;;;;59.28;56.10;;;;;;;;;;5063331;28;20044;-79
2023/12/29 11:01:36;;;;;;;52.03;48.92;;;;;;;;;;5066245;28;20392;-82
2023/12/29 11:04:09;;;;;;;45.58;43.00;;;;;;;;;;5064333;28;20568;-76
2023/12/29 11:06:46;;;;;;;48.08;45.42;;;;;;;;;;5063659;28;20052;-78
2023/12/29 11:09:36;;;;;;;49.88;47.03;;;;;;;;;;5062689;28;20241;-77
2023/12/29 11:12:07;;;;;;;49.08;46.47;;;;;;;;;;5063579;28;20055;-77
2023/12/29 11:14:40;;;;;;;46.58;44.15;;;;;;;;;;5064823;28;20048;-77
2023/12/29 11:17:13;;;;;;;53.40;50.47;;;;;;;;;;5062806;28;20052;-78
2023/12/29 11:19:49;;;;;;;52.40;49.45;;;;;;;;;;5063429;28;20742;-76
2023/12/29 11:22:21;;;;;;;60.33;57.03;;;;;;;;;;5062644;28;20051;-76
2023/12/29 11:24:51;;;;;;;56.08;52.97;;;;;;;;;;5062696;28;20044;-77
2023/12/29 11:27:23;;;;;;;53.45;50.60;;;;;;;;;;5062875;28;20053;-77
2023/12/29 11:29:55;;;;;;;49.33;46.63;;;;;;;;;;5062723;28;20507;-77
2023/12/29 11:32:41;;;;;;;46.53;44.08;;;;;;;;;;5061430;28;20048;-78
2023/12/29 11:35:49;;;;;;;34.67;32.53;;;;;;;;;;5060227;28;20056;-77
2023/12/29 11:38:37;;;;;;;33.53;31.75;;;;;;;;;;5061353;28;20067;-78
2023/12/29 11:41:22;;;;;;;29.75;28.23;;;;;;;;;;5061857;28;20044;-77
2023/12/29 11:44:01;;;;;;;35.85;33.95;;;;;;;;;;5061960;28;20052;-77
2023/12/29 11:46:42;;;;;;;33.58;31.77;;;;;;;;;;5061782;28;20052;-78
2023/12/29 11:49:14;;;;;;;36.15;34.15;;;;;;;;;;5061661;28;20628;-78
2023/12/29 11:51:51;;;;;;;35.83;33.85;;;;;;;;;;5061817;28;20403;-77
2023/12/29 11:54:26;;;;;;;33.72;31.90;;;;;;;;;;5062333;28;20761;-78
2023/12/29 11:56:56;;;;;;;42.35;39.80;;;;;;;;;;5062059;28;20538;-77
2023/12/29 11:59:28;;;;;;;42.88;40.63;;;;;;;;;;5061543;28;20052;-79
2023/12/29 12:02:04;;;;;;;35.45;33.58;;;;;;;;;;5061831;28;20044;-79
2023/12/29 12:04:44;;;;;;;36.10;34.05;;;;;;;;;;5061546;28;20049;-78
2023/12/29 12:07:38;;;;;;;36.05;34.08;;;;;;;;;;5061963;28;20587;-78
2023/12/29 12:10:26;;;;;;;35.45;33.60;;;;;;;;;;5061209;28;20060;-77
2023/12/29 12:12:59;;;;;;;33.40;31.67;;;;;;;;;;5061774;28;20079;-78
2023/12/29 12:15:30;;;;;;;41.00;38.28;;;;;;;;;;5060408;28;20067;-76
2023/12/29 12:18:09;;;;;;;33.75;32.00;;;;;;;;;;5061087;28;20543;-77
2023/12/29 12:20:40;;;;;;;36.78;34.65;;;;;;;;;;5061409;28;20047;-77
2023/12/29 12:23:18;;;;;;;44.58;42.13;;;;;;;;;;5063462;28;20049;-76
2023/12/29 12:25:56;;;;;;;40.47;38.30;;;;;;;;;;5064120;28;20420;-76
2023/12/29 12:28:26;;;;;;;37.38;35.47;;;;;;;;;;5064755;28;20759;-76
2023/12/29 12:31:08;;;;;;;40.83;38.70;;;;;;;;;;5063764;28;20419;-75
2023/12/29 12:33:40;;;;;;;34.65;32.72;;;;;;;;;;5065026;28;20044;-80
2023/12/29 12:36:13;;;;;;;40.97;38.75;;;;;;;;;;5063421;28;20058;-76
2023/12/29 12:39:01;;;;;;;38.30;36.22;;;;;;;;;;5064821;28;20041;-77
2023/12/29 12:41:33;;;;;;;36.45;34.28;;;;;;;;;;5064961;28;20397;-76
2023/12/29 12:44:12;;;;;;;42.45;40.17;;;;;;;;;;5065774;28;20966;-76
2023/12/29 12:46:42;;;;;;;44.22;41.83;;;;;;;;;;5064808;28;20048;-77
2023/12/29 12:49:13;;;;;;;49.03;46.13;;;;;;;;;;5064699;28;20083;-77
2023/12/29 12:51:45;;;;;;;47.80;45.22;;;;;;;;;;5064208;28;20419;-80
2023/12/29 12:54:20;;;;;;;43.17;40.72;;;;;;;;;;5064696;28;20051;-80
2023/12/29 12:56:51;;;;;;;38.83;36.78;;;;;;;;;;5064262;28;20415;-78
2023/12/29 12:59:22;;;;;;;41.88;39.67;;;;;;;;;;5064702;28;20055;-77
2023/12/29 13:01:52;;;;;;;39.28;37.15;;;;;;;;;;5064459;28;20411;-76
2023/12/29 13:04:23;;;;;;;39.22;37.00;;;;;;;;;;5064257;28;20395;-77
2023/12/29 13:06:55;;;;;;;41.58;39.30;;;;;;;;;;5064710;28;20593;-76
2023/12/29 13:09:27;;;;;;;33.00;31.27;;;;;;;;;;5064542;28;20063;-76
2023/12/29 13:12:17;;;;;;;37.03;34.67;;;;;;;;;;5063818;28;20523;-76
2023/12/29 13:14:48;;;;;;;38.13;36.13;;;;;;;;;;5066966;28;20163;-76
2023/12/29 13:17:22;;;;;;;46.83;44.15;;;;;;;;;;5064304;28;20498;-78
2023/12/29 13:19:59;;;;;;;39.47;37.40;;;;;;;;;;5064823;28;20050;-76
2023/12/29 13:22:30;;;;;;;57.80;54.42;;;;;;;;;;5065592;28;20044;-77
2023/12/29 13:25:07;;;;;;;48.65;45.80;;;;;;;;;;5064988;28;20051;-77
2023/12/29 13:27:40;;;;;;;38.63;36.45;;;;;;;;;;5067527;28;20053;-76
2023/12/29 13:30:12;;;;;;;42.08;39.90;;;;;;;;;;5064133;28;20418;-76
2023/12/29 13:32:44;;;;;;;39.33;37.30;;;;;;;;;;5065465;28;20047;-78
2023/12/29 13:44:58;;;;;;;;;;;;;;;;;;5068253;28;20727;-75
2023/12/29 13:47:29;;;;;;;30.17;28.48;;;;;;;;;;5065323;28;20380;-76
2023/12/29 13:50:02;;;;;;;30.63;28.85;;;;;;;;;;5063262;28;21194;-75
2023/12/29 13:52:37;;;;;;;43.08;40.78;;;;;;;;;;5066552;28;20055;-76
2023/12/29 13:55:08;;;;;;;34.97;33.15;;;;;;;;;;5065161;28;20051;-75
2023/12/29 14:07:11;;;;;;;31.30;29.55;;;;;;;;;;5041606;28;20063;-74
2023/12/29 14:09:43;;;;;;;36.50;34.58;;;;;;;;;;5057273;28;20063;-75
2023/12/29 14:12:25;;;;;;;37.42;35.20;;;;;;;;;;5064403;28;20403;-76
2023/12/29 14:15:02;;;;;;;40.22;38.13;;;;;;;;;;5064687;28;20056;-76
2023/12/29 14:17:33;;;;;;;41.40;39.10;;;;;;;;;;5064398;28;20045;-75
2023/12/29 14:20:05;;;;;;;41.20;38.60;;;;;;;;;;5064797;28;20052;-78
2023/12/29 14:22:36;;;;;;;36.03;33.90;;;;;;;;;;5064384;28;20411;-75
2023/12/29 14:25:10;;;;;;;32.63;30.90;;;;;;;;;;5063609;28;20056;-75
2023/12/29 14:27:41;;;;;;;39.30;36.90;;;;;;;;;;5063654;28;20052;-77
2023/12/29 14:30:19;;;;;;;44.72;41.88;;;;;;;;;;5063082;28;20059;-80
2023/12/29 14:32:50;;;;;;;33.65;31.88;;;;;;;;;;5063721;28;20048;-75
2023/12/29 14:35:20;;;;;;;39.47;37.00;;;;;;;;;;5063609;28;20071;-76
2023/12/29 14:37:51;;;;;;;33.05;31.13;;;;;;;;;;5061257;28;20068;-75
2023/12/29 14:40:21;;;;;;;29.88;28.20;;;;;;;;;;5063053;28;20048;-77
2023/12/29 14:42:51;;;;;;;34.97;32.53;;;;;;;;;;5062551;28;20597;-79
2023/12/29 14:45:22;;;;;;;34.22;31.98;;;;;;;;;;5062222;28;20048;-78
2023/12/29 14:47:52;;;;;;;37.55;35.13;;;;;;;;;;5062090;28;20045;-75
2023/12/29 14:50:24;;;;;;;29.77;27.48;;;;;;;;;;5062141;28;20086;-78
2023/12/29 14:52:55;;;;;;;28.70;27.08;;;;;;;;;;5062598;28;20663;-77
2023/12/29 14:55:26;;;;;;;35.90;33.53;;;;;;;;;;5062237;28;20044;-74
2023/12/29 14:57:56;;;;;;;30.92;29.10;;;;;;;;;;5062162;28;20055;-77
2023/12/29 15:00:27;;;;;;;32.85;31.10;;;;;;;;;;5062284;28;20040;-75
2023/12/29 15:02:59;;;;;;;32.72;30.73;;;;;;;;;;5062461;28;20059;-74
2023/12/29 15:05:30;;;;;;;32.70;30.70;;;;;;;;;;5062052;28;20052;-73